createdAt,value
2018-07-03T01:04:32.750Z,1.30
2018-07-03T01:07:00.881Z,1.53
2018-07-03T01:09:29.295Z,1.53
2018-07-03T01:11:57.597Z,1.77
2018-07-03T01:14:25.743Z,4.00
2018-07-03T01:16:54.515Z,1.80
2018-07-03T01:19:22.703Z,2.20
2018-07-03T01:21:50.937Z,2.57
2018-07-03T01:24:19.226Z,1.60
2018-07-03T01:26:47.481Z,1.93
2018-07-03T01:29:15.426Z,2.07
2018-07-03T01:31:44.026Z,3.20
2018-07-03T01:34:12.885Z,1.87
2018-07-03T01:36:41.758Z,2.07
2018-07-03T01:39:10.849Z,2.10
2018-07-03T01:41:39.474Z,2.83
2018-07-03T01:44:07.846Z,2.13
2018-07-03T01:46:38.058Z,2.30
2018-07-03T01:49:06.925Z,2.70
2018-07-03T01:51:35.997Z,2.63
2018-07-03T01:54:04.620Z,2.07
2018-07-03T01:56:33.422Z,2.10
2018-07-03T01:59:02.427Z,3.23
2018-07-03T02:01:31.122Z,2.30
2018-07-03T02:03:59.969Z,2.63
2018-07-03T02:06:28.810Z,2.30
2018-07-03T02:08:57.303Z,2.23
2018-07-03T02:11:26.678Z,2.53
2018-07-03T02:13:55.578Z,2.80
2018-07-03T02:16:23.718Z,2.70
2018-07-03T02:18:53.678Z,2.53
2018-07-03T02:21:21.612Z,2.70
2018-07-03T02:23:49.720Z,4.00
2018-07-03T02:26:17.797Z,3.17
2018-07-03T02:28:45.825Z,3.23
2018-07-03T02:31:14.110Z,3.30
2018-07-03T02:33:42.486Z,2.90
2018-07-03T02:36:12.006Z,3.50
2018-07-03T02:38:40.354Z,3.60
2018-07-03T02:41:09.507Z,3.80
2018-07-03T02:43:38.364Z,3.57
2018-07-03T02:46:07.115Z,3.70
2018-07-03T02:48:36.242Z,3.77
2018-07-03T02:51:04.866Z,3.90
2018-07-03T02:53:33.654Z,3.90
2018-07-03T02:56:02.412Z,4.13
2018-07-03T02:58:31.448Z,3.80
2018-07-03T03:00:59.988Z,5.27
2018-07-03T03:03:28.662Z,5.00
2018-07-03T03:05:57.160Z,3.43
2018-07-03T03:08:26.203Z,3.83
2018-07-03T03:10:54.773Z,4.17
2018-07-03T03:13:23.650Z,3.87
2018-07-03T03:15:52.414Z,3.90
2018-07-03T03:18:21.522Z,3.47
2018-07-03T03:20:49.698Z,4.43
2018-07-03T03:23:18.195Z,4.37
2018-07-03T03:25:47.697Z,3.43
2018-07-03T03:28:18.640Z,3.50
2018-07-03T03:30:46.975Z,3.23
2018-07-03T03:33:15.734Z,2.57
2018-07-03T03:35:45.317Z,3.07
2018-07-03T03:38:13.637Z,2.83
2018-07-03T03:40:41.962Z,2.90
2018-07-03T03:43:10.306Z,3.00
2018-07-03T03:45:38.499Z,2.60
2018-07-03T03:48:07.538Z,3.10
2018-07-03T03:50:35.890Z,3.80
2018-07-03T03:53:05.490Z,3.33
2018-07-03T03:55:33.688Z,3.20
2018-07-03T03:58:01.654Z,3.00
2018-07-03T04:00:30.277Z,3.20
2018-07-03T04:02:58.375Z,3.23
2018-07-03T04:05:28.395Z,3.90
2018-07-03T04:07:57.925Z,3.50
2018-07-03T04:10:25.886Z,4.30
2018-07-03T04:12:54.062Z,3.27
2018-07-03T04:15:22.854Z,3.47
2018-07-03T04:17:51.506Z,3.57
2018-07-03T04:20:20.823Z,3.33
2018-07-03T04:22:49.498Z,3.03
2018-07-03T04:25:17.704Z,3.70
2018-07-03T04:27:46.246Z,3.60
2018-07-03T04:30:15.073Z,3.03
2018-07-03T04:32:43.646Z,3.10
2018-07-03T04:35:12.618Z,3.83
2018-07-03T04:37:40.912Z,3.43
2018-07-03T04:40:09.687Z,2.63
2018-07-03T04:42:39.158Z,3.80
2018-07-03T04:45:07.636Z,3.20
2018-07-03T04:47:36.154Z,2.67
2018-07-03T04:50:05.102Z,3.13
2018-07-03T04:52:33.947Z,3.60
2018-07-03T04:55:02.270Z,2.47
2018-07-03T04:57:30.515Z,1.80
2018-07-03T04:59:58.926Z,2.40
2018-07-03T05:02:27.596Z,2.73
2018-07-03T05:04:56.581Z,1.77
2018-07-03T05:07:24.730Z,2.10
2018-07-03T05:09:54.062Z,1.80
2018-07-03T05:12:22.007Z,2.13
2018-07-03T05:14:50.167Z,2.33
2018-07-03T05:17:19.045Z,1.70
2018-07-03T05:19:47.686Z,1.63
2018-07-03T05:22:15.831Z,1.70
2018-07-03T05:24:44.410Z,2.33
2018-07-03T05:27:13.444Z,1.72
2018-07-03T05:29:42.367Z,3.17
2018-07-03T05:32:11.415Z,1.30
2018-07-03T05:34:40.391Z,1.60
2018-07-03T05:37:10.246Z,2.80
2018-07-03T05:39:39.194Z,1.60
2018-07-03T05:42:07.453Z,1.37
2018-07-03T05:44:36.238Z,1.60
2018-07-03T05:47:05.447Z,1.37
2018-07-03T05:49:33.795Z,1.40
2018-07-03T05:52:01.902Z,1.25
2018-07-03T05:54:30.099Z,1.15
2018-07-03T05:56:58.999Z,1.47
2018-07-03T05:59:27.979Z,1.27
2018-07-03T06:01:57.153Z,1.10
2018-07-03T06:04:25.447Z,2.05
2018-07-03T06:06:54.214Z,0.80
2018-07-03T06:09:22.543Z,0.82
2018-07-03T06:11:50.798Z,1.07
2018-07-03T06:14:18.981Z,0.90
2018-07-03T06:16:47.285Z,0.62
2018-07-03T06:19:16.347Z,0.93
2018-07-03T06:21:45.072Z,0.82
2018-07-03T06:24:13.250Z,1.30
2018-07-03T06:26:41.492Z,1.50
2018-07-03T06:29:10.213Z,0.78
2018-07-03T06:31:38.318Z,0.80
2018-07-03T06:34:06.717Z,0.60
2018-07-03T06:36:35.286Z,1.62
2018-07-03T06:39:07.361Z,0.95
2018-07-03T06:41:36.141Z,1.22
2018-07-03T06:44:04.757Z,0.80
2018-07-03T06:46:33.510Z,0.60
2018-07-03T06:49:02.115Z,1.35
2018-07-03T06:51:31.415Z,0.70
2018-07-03T06:54:00.008Z,0.78
2018-07-03T06:56:29.385Z,0.62
2018-07-03T06:58:59.424Z,1.25
2018-07-03T07:01:29.068Z,0.55
2018-07-03T07:03:58.447Z,0.60
2018-07-03T07:06:26.714Z,0.50
2018-07-03T07:08:55.896Z,0.50
2018-07-03T07:11:24.701Z,0.40
2018-07-03T07:13:54.317Z,0.85
2018-07-03T07:16:22.711Z,1.57
2018-07-03T07:18:51.755Z,0.50
2018-07-03T07:21:20.354Z,0.47
2018-07-03T07:23:49.350Z,0.68
2018-07-03T07:26:17.670Z,0.47
2018-07-03T07:28:45.965Z,0.60
2018-07-03T07:31:14.400Z,1.47
2018-07-03T07:33:43.210Z,1.22
2018-07-03T07:36:11.704Z,1.10
2018-07-03T07:38:39.637Z,0.98
2018-07-03T07:41:08.669Z,0.82
2018-07-03T07:43:36.767Z,0.50
2018-07-03T07:46:04.906Z,0.47
2018-07-03T07:48:32.975Z,0.30
2018-07-03T07:51:00.928Z,0.65
2018-07-03T07:53:29.091Z,0.50
2018-07-03T07:55:58.046Z,0.50
2018-07-03T07:58:26.674Z,0.40
2018-07-03T08:00:54.862Z,0.55
2018-07-03T08:03:23.236Z,0.30
2018-07-03T08:05:51.721Z,0.50
2018-07-03T08:08:19.942Z,0.35
2018-07-03T08:10:48.667Z,0.90
2018-07-03T08:13:17.176Z,0.62
2018-07-03T08:15:45.354Z,1.10
2018-07-03T08:18:14.390Z,4.67
2018-07-03T08:20:42.634Z,0.50
2018-07-03T08:23:11.333Z,0.30
2018-07-03T08:25:40.312Z,0.45
2018-07-03T08:28:09.306Z,2.50
2018-07-03T08:30:38.106Z,0.37
2018-07-03T08:33:06.562Z,0.37
2018-07-03T08:35:34.978Z,0.82
2018-07-03T08:38:03.807Z,0.40
2018-07-03T08:40:32.814Z,0.40
2018-07-03T08:43:01.987Z,0.30
2018-07-03T08:45:31.084Z,0.30
2018-07-03T08:48:00.031Z,1.05
2018-07-03T08:51:32.629Z,0.30
2018-07-03T08:54:01.695Z,0.30
2018-07-03T08:56:29.860Z,0.30
2018-07-03T08:58:58.039Z,0.25
2018-07-03T09:01:26.930Z,1.98
2018-07-03T09:03:55.151Z,0.40
2018-07-03T09:06:23.975Z,0.50
2018-07-03T09:08:52.550Z,0.65
2018-07-03T09:11:20.938Z,0.45
2018-07-03T09:13:49.323Z,0.40
2018-07-03T09:16:18.263Z,0.50
2018-07-03T09:18:47.209Z,0.30
2018-07-03T09:21:15.692Z,0.45
2018-07-03T09:23:44.531Z,0.40
2018-07-03T09:26:12.489Z,0.30
2018-07-03T09:28:41.258Z,0.28
2018-07-03T09:31:10.126Z,0.68
2018-07-03T09:33:38.923Z,0.20
2018-07-03T09:36:06.981Z,0.30
2018-07-03T09:38:35.201Z,0.53
2018-07-03T09:41:03.377Z,0.20
2018-07-03T09:43:32.630Z,0.25
2018-07-03T09:46:01.069Z,0.37
2018-07-03T09:48:29.005Z,0.30
2018-07-03T09:50:58.006Z,1.75
2018-07-03T09:53:26.453Z,0.40
2018-07-03T09:55:54.935Z,0.35
2018-07-03T09:58:23.967Z,0.40
2018-07-03T10:00:56.814Z,0.62
2018-07-03T10:03:26.611Z,0.40
2018-07-03T10:05:58.693Z,1.02
2018-07-03T10:08:29.074Z,0.40
2018-07-03T10:10:57.575Z,1.65
2018-07-03T10:13:25.644Z,0.47
2018-07-03T10:15:53.792Z,0.68
2018-07-03T10:18:22.314Z,1.25
2018-07-03T10:20:50.523Z,0.40
2018-07-03T10:23:18.833Z,0.47
2018-07-03T10:25:47.984Z,0.45
2018-07-03T10:28:21.483Z,0.30
2018-07-03T10:30:50.551Z,0.30
2018-07-03T10:34:43.401Z,0.40
2018-07-03T10:37:12.367Z,0.55
2018-07-03T10:39:41.371Z,0.40
2018-07-03T10:42:10.227Z,0.37
2018-07-03T10:44:38.991Z,0.40
2018-07-03T10:47:07.207Z,0.72
2018-07-03T10:49:36.926Z,0.30
2018-07-03T10:52:05.967Z,0.40
2018-07-03T10:54:34.815Z,0.47
2018-07-03T10:57:03.067Z,1.22
2018-07-03T10:59:32.085Z,0.47
2018-07-03T11:02:00.717Z,0.45
2018-07-03T11:04:30.181Z,0.42
2018-07-03T11:06:58.736Z,0.40
2018-07-03T11:09:26.925Z,0.80
2018-07-03T11:11:56.281Z,0.70
2018-07-03T11:14:25.054Z,0.70
2018-07-03T11:16:53.583Z,0.85
2018-07-03T11:19:21.801Z,1.02
2018-07-03T11:21:50.582Z,1.50
2018-07-03T11:24:19.014Z,0.47
2018-07-03T11:26:48.657Z,0.60
2018-07-03T11:29:16.865Z,0.62
2018-07-03T11:31:45.149Z,0.62
2018-07-03T11:34:14.216Z,0.90
2018-07-03T11:36:42.929Z,0.82
2018-07-03T11:39:11.056Z,0.75
2018-07-03T11:41:39.313Z,0.82
2018-07-03T11:44:08.928Z,1.20
2018-07-03T11:46:37.760Z,1.00
2018-07-03T11:49:06.382Z,0.50
2018-07-03T11:51:35.583Z,0.80
2018-07-03T11:54:03.817Z,0.72
2018-07-03T11:56:31.985Z,0.93
2018-07-03T11:59:00.190Z,0.72
2018-07-03T12:01:28.779Z,1.10
2018-07-03T12:03:57.869Z,1.77
2018-07-03T12:06:26.142Z,2.20
2018-07-03T12:08:54.213Z,1.05
2018-07-03T12:11:22.151Z,0.95
2018-07-03T12:13:51.395Z,1.10
2018-07-03T12:16:20.358Z,1.20
2018-07-03T12:18:54.969Z,0.80
2018-07-03T12:21:24.262Z,0.90
2018-07-03T12:23:52.494Z,1.17
2018-07-03T12:26:21.577Z,0.80
2018-07-03T12:28:50.091Z,1.52
2018-07-03T12:31:19.440Z,1.40
2018-07-03T12:33:47.602Z,1.07
2018-07-03T12:36:16.463Z,1.52
2018-07-03T12:38:44.666Z,1.00
2018-07-03T12:41:13.466Z,1.25
2018-07-03T12:43:43.837Z,1.17
2018-07-03T12:46:12.087Z,2.25
2018-07-03T12:48:42.037Z,0.80
2018-07-03T12:51:10.286Z,1.52
2018-07-03T12:53:38.162Z,0.90
2018-07-03T12:56:06.506Z,1.10
2018-07-03T12:58:34.786Z,0.80
2018-07-03T13:01:03.812Z,2.42
2018-07-03T13:03:32.489Z,0.88
2018-07-03T13:06:00.569Z,1.22
2018-07-03T13:08:29.113Z,1.10
2018-07-03T13:10:58.010Z,0.80
2018-07-03T13:13:26.569Z,1.30
2018-07-03T13:15:54.713Z,0.93
2018-07-03T13:18:24.685Z,0.68
2018-07-03T13:20:54.411Z,1.12
2018-07-03T13:23:24.182Z,0.78
2018-07-03T13:25:53.406Z,0.70
2018-07-03T13:28:22.381Z,2.15
2018-07-03T13:30:51.179Z,3.67
2018-07-03T13:33:19.677Z,1.00
2018-07-03T13:35:48.542Z,0.88
2018-07-03T13:38:17.040Z,1.37
2018-07-03T13:40:45.345Z,1.75
2018-07-03T13:43:14.024Z,0.75
2018-07-03T13:45:42.204Z,0.60
2018-07-03T13:48:11.299Z,2.45
2018-07-03T13:50:40.366Z,0.68
2018-07-03T13:53:09.059Z,1.20
2018-07-03T13:55:37.839Z,1.52
2018-07-03T13:58:06.430Z,0.88
2018-07-03T14:00:35.850Z,0.60
2018-07-03T14:03:05.050Z,0.85
2018-07-03T14:05:33.971Z,0.78
2018-07-03T14:08:02.613Z,3.08
2018-07-03T14:10:30.777Z,1.12
2018-07-03T14:12:59.885Z,0.75
2018-07-03T14:15:28.607Z,0.90
2018-07-03T14:17:57.413Z,0.70
2018-07-03T14:20:25.955Z,0.80
2018-07-03T14:22:54.530Z,0.60
2018-07-03T14:25:22.693Z,0.80
2018-07-03T14:27:52.194Z,0.70
2018-07-03T14:30:20.582Z,0.78
2018-07-03T14:32:48.975Z,0.90
2018-07-03T14:35:17.673Z,1.10
2018-07-03T14:37:45.937Z,3.37
2018-07-03T14:40:14.031Z,1.10
2018-07-03T14:42:43.019Z,0.82
2018-07-03T14:45:11.569Z,0.60
2018-07-03T14:47:40.477Z,1.20
2018-07-03T14:50:08.854Z,0.53
2018-07-03T14:52:37.802Z,0.80
2018-07-03T14:55:06.567Z,0.90
2018-07-03T14:57:35.810Z,0.57
2018-07-03T15:00:06.469Z,1.67
2018-07-03T15:02:35.258Z,0.68
2018-07-03T15:05:04.306Z,0.57
2018-07-03T15:07:32.563Z,0.70
2018-07-03T15:10:01.235Z,0.55
2018-07-03T15:12:29.426Z,1.47
2018-07-03T15:14:57.626Z,0.88
2018-07-03T15:17:25.942Z,0.75
2018-07-03T15:19:55.102Z,0.82
2018-07-03T15:22:23.703Z,0.62
2018-07-03T15:24:52.436Z,0.53
2018-07-03T15:27:21.425Z,0.60
2018-07-03T15:29:49.673Z,1.65
2018-07-03T15:32:18.964Z,0.60
2018-07-03T15:34:47.224Z,0.50
2018-07-03T15:37:16.842Z,0.62
2018-07-03T15:39:44.946Z,5.35
2018-07-03T15:42:13.009Z,0.50
2018-07-03T15:44:52.942Z,0.85
2018-07-03T15:47:21.374Z,0.62
2018-07-03T15:49:49.533Z,0.80
2018-07-03T15:52:17.806Z,1.00
2018-07-03T15:54:46.512Z,0.57
2018-07-03T15:57:14.985Z,0.70
2018-07-03T15:59:43.562Z,1.32
2018-07-03T16:02:11.957Z,2.00
2018-07-03T16:05:02.066Z,0.85
2018-07-03T16:07:36.378Z,1.30
2018-07-03T16:10:05.224Z,0.70
2018-07-03T16:12:34.466Z,0.57
2018-07-03T16:15:03.211Z,0.40
2018-07-03T16:17:31.513Z,0.62
2018-07-03T16:20:05.663Z,0.60
2018-07-03T16:22:33.789Z,1.92
2018-07-03T16:25:02.283Z,0.98
2018-07-03T16:27:30.312Z,1.00
2018-07-03T16:29:59.810Z,2.05
2018-07-03T16:32:29.358Z,0.40
2018-07-03T16:34:57.676Z,0.57
2018-07-03T16:37:27.119Z,0.80
2018-07-03T16:39:55.898Z,0.70
2018-07-03T16:42:24.172Z,1.25
2018-07-03T16:44:52.456Z,0.70
2018-07-03T16:47:21.197Z,0.80
2018-07-03T16:49:50.235Z,1.92
2018-07-03T16:52:19.108Z,1.80
2018-07-03T16:54:48.004Z,0.88
2018-07-03T16:57:16.325Z,2.67
2018-07-03T16:59:44.815Z,1.12
2018-07-03T17:02:14.315Z,0.80
2018-07-03T17:04:43.103Z,0.93
2018-07-03T17:07:11.352Z,1.80
2018-07-03T17:09:39.593Z,1.05
2018-07-03T17:12:07.554Z,1.32
2018-07-03T17:14:35.503Z,0.95
2018-07-03T17:17:05.225Z,2.47
2018-07-03T17:19:40.478Z,1.12
2018-07-03T17:22:09.353Z,2.25
2018-07-03T17:24:38.248Z,1.40
2018-07-03T17:27:06.502Z,1.20
2018-07-03T17:29:35.468Z,0.93
2018-07-03T17:32:03.907Z,0.98
2018-07-03T17:34:32.874Z,0.72
2018-07-03T17:37:01.871Z,0.80
2018-07-03T17:39:43.158Z,1.98
2018-07-03T17:42:22.821Z,1.65
2018-07-03T17:46:02.319Z,1.10
2018-07-03T17:48:30.577Z,1.02
2018-07-03T17:50:59.399Z,1.02
2018-07-03T17:53:27.658Z,1.70
2018-07-03T17:55:57.505Z,1.50
2018-07-03T17:58:25.736Z,1.25
2018-07-03T18:00:54.191Z,1.30
2018-07-03T18:03:22.106Z,1.15
2018-07-03T18:05:51.015Z,2.45
2018-07-03T18:08:19.275Z,1.60
2018-07-03T18:10:47.661Z,1.32
2018-07-03T18:13:15.879Z,1.95
2018-07-03T18:15:44.738Z,1.50
2018-07-03T18:18:13.003Z,1.40
2018-07-03T18:20:43.110Z,3.17
2018-07-03T18:23:11.731Z,2.20
2018-07-03T18:25:40.537Z,1.72
2018-07-03T18:28:08.917Z,2.47
2018-07-03T18:30:36.971Z,1.95
2018-07-03T18:33:05.262Z,2.58
2018-07-03T18:35:35.384Z,2.50
2018-07-03T18:38:03.749Z,1.98
2018-07-03T18:40:32.627Z,1.90
2018-07-03T18:43:01.349Z,2.58
2018-07-03T18:45:30.692Z,3.08
2018-07-03T18:47:59.542Z,3.02
2018-07-03T18:50:27.700Z,2.67
2018-07-03T18:52:56.477Z,2.35
2018-07-03T18:55:26.458Z,2.95
2018-07-03T18:57:55.663Z,2.80
2018-07-03T19:00:24.585Z,3.65
2018-07-03T19:02:54.230Z,2.17
2018-07-03T19:05:24.005Z,2.47
2018-07-03T19:07:52.927Z,2.60
2018-07-03T19:10:21.056Z,3.05
2018-07-03T19:12:49.846Z,4.03
2018-07-03T19:15:18.320Z,3.65
2018-07-03T19:17:46.900Z,2.58
2018-07-03T19:20:15.349Z,2.80
2018-07-03T19:22:43.295Z,2.90
2018-07-03T19:25:12.147Z,5.03
2018-07-03T19:27:40.494Z,2.58
2018-07-03T19:30:09.821Z,2.75
2018-07-03T19:32:38.833Z,3.08
2018-07-03T19:35:07.431Z,2.40
2018-07-03T19:37:36.350Z,2.83
2018-07-03T19:40:05.606Z,3.05
2018-07-03T19:42:33.802Z,3.50
2018-07-03T19:45:02.046Z,2.95
2018-07-03T19:47:30.452Z,2.92
2018-07-03T19:49:58.715Z,3.40
2018-07-03T19:52:27.180Z,3.95
2018-07-03T19:54:55.690Z,3.05
2018-07-03T19:57:24.470Z,3.00
2018-07-03T19:59:52.657Z,2.90
2018-07-03T20:02:20.871Z,3.02
2018-07-03T20:04:49.233Z,4.30
2018-07-03T20:07:17.871Z,4.05
2018-07-03T20:09:46.691Z,3.60
2018-07-03T20:12:15.378Z,3.27
2018-07-03T20:14:43.962Z,3.90
2018-07-03T20:17:12.414Z,3.27
2018-07-03T20:19:41.259Z,4.10
2018-07-03T20:22:09.229Z,3.22
2018-07-03T20:24:37.190Z,3.47
2018-07-03T20:27:05.363Z,4.78
2018-07-03T20:29:33.505Z,2.83
2018-07-03T20:32:02.414Z,3.42
2018-07-03T20:34:31.298Z,3.02
2018-07-03T20:37:00.419Z,6.78
2018-07-03T20:39:28.614Z,4.08
2018-07-03T20:41:56.870Z,7.03
2018-07-03T20:44:26.800Z,4.30
2018-07-03T20:46:54.934Z,4.67
2018-07-03T20:49:23.520Z,4.67
2018-07-03T20:51:52.587Z,4.10
2018-07-03T20:54:20.774Z,7.40
2018-07-03T20:56:48.987Z,5.90
2018-07-03T20:59:17.142Z,7.67
2018-07-03T21:01:45.745Z,3.43
2018-07-03T21:04:14.081Z,3.50
2018-07-03T21:06:42.539Z,6.40
2018-07-03T21:09:11.014Z,3.53
2018-07-03T21:11:39.519Z,2.93
2018-07-03T21:14:07.931Z,3.30
2018-07-03T21:16:36.821Z,3.20
2018-07-03T21:19:05.225Z,4.00
2018-07-03T21:21:33.389Z,4.43
2018-07-03T21:24:01.891Z,3.60
2018-07-03T21:26:30.063Z,6.60
2018-07-03T21:28:58.328Z,6.80
2018-07-03T21:31:27.192Z,3.57
2018-07-03T21:33:55.757Z,5.43
2018-07-03T21:36:24.191Z,3.90
2018-07-03T21:38:52.317Z,3.50
2018-07-03T21:41:21.229Z,4.07
2018-07-03T21:43:51.177Z,4.77
2018-07-03T21:46:19.186Z,6.53
2018-07-03T21:48:47.632Z,3.07
2018-07-03T21:51:16.274Z,4.47
2018-07-03T21:53:44.957Z,3.97
2018-07-03T21:56:13.226Z,4.37
2018-07-03T21:58:41.338Z,5.20
2018-07-03T22:01:09.827Z,4.43
2018-07-03T22:03:39.721Z,3.50
2018-07-03T22:06:08.510Z,3.87
2018-07-03T22:08:37.265Z,4.87
2018-07-03T22:11:05.752Z,6.17
2018-07-03T22:13:34.195Z,3.57
2018-07-03T22:16:02.068Z,3.97
2018-07-03T22:19:59.625Z,3.40
2018-07-03T22:22:27.992Z,4.27
2018-07-03T22:24:56.660Z,6.33
2018-07-03T22:27:25.474Z,4.63
2018-07-03T22:29:53.409Z,4.87
2018-07-03T22:32:21.756Z,4.73
2018-07-03T22:34:50.318Z,4.30
2018-07-03T22:37:18.243Z,4.63
2018-07-03T22:39:47.540Z,3.90
2018-07-03T22:42:16.546Z,3.47
2018-07-03T22:44:45.535Z,7.03
2018-07-03T22:47:13.757Z,3.50
2018-07-03T22:49:42.615Z,3.57
2018-07-03T22:52:11.286Z,3.93
2018-07-03T22:54:40.335Z,5.20
2018-07-03T22:57:09.659Z,4.10
2018-07-03T22:59:38.233Z,6.43
2018-07-03T23:02:07.117Z,4.53
2018-07-03T23:04:37.686Z,5.00
2018-07-03T23:07:06.381Z,5.30
2018-07-03T23:09:35.499Z,3.50
2018-07-03T23:12:03.753Z,5.30
2018-07-03T23:14:32.391Z,3.97
2018-07-03T23:17:02.539Z,3.60
2018-07-03T23:19:31.874Z,5.60
2018-07-03T23:22:00.082Z,5.00
2018-07-03T23:24:29.094Z,5.03
2018-07-03T23:26:58.410Z,4.83
2018-07-03T23:29:27.402Z,4.57
2018-07-03T23:31:55.669Z,3.90
2018-07-03T23:34:24.374Z,6.90
2018-07-03T23:36:52.625Z,5.13
2018-07-03T23:39:21.350Z,5.23
2018-07-03T23:41:49.753Z,4.93
2018-07-03T23:44:18.365Z,6.20
2018-07-03T23:46:58.402Z,7.37
2018-07-03T23:49:38.087Z,4.83
2018-07-03T23:52:17.847Z,8.27
2018-07-03T23:54:57.912Z,6.80
2018-07-03T23:57:37.871Z,8.20
